Creek Data

    Home     View Charts     View Raw Data     Messages

ID Distance Battery Voltage Battery Current Internal Temp Internal Humidity External Temp Solar Input rssi snr Time Stamp Record
67500 13.7 3.62 -5 63 54 65 0 -73 9 02/27/2026 07:30 PM 50344
67499 13.7 3.63 -5 63 55 64 0.1 -73 8 02/27/2026 07:15 PM 50343
67498 13.7 3.63 -5 64 55 65 0.1 -72 8 02/27/2026 07:00 PM 50342
67497 13.7 3.79 -5 65 55 65 0 -73 8 02/27/2026 06:45 PM 50341
67496 13.7 3.64 -5 66 56 66 0 -73 9 02/27/2026 06:30 PM 50340
67495 13.7 3.64 -5 67 56 67 0 -73 8 02/27/2026 06:15 PM 50339
67494 13.7 3.79 -5 68 56 68 1.5 -73 8 02/27/2026 06:00 PM 50338
67493 13.7 3.59 -5 70 56 70 4.5 -73 9 02/27/2026 05:45 PM 50337
67492 13.7 3.86 7 72 56 70 4.5 -72 8 02/27/2026 05:30 PM 50336
67491 13.7 3.82 12 74 56 71 4.5 -72 8 02/27/2026 05:15 PM 50335
67490 13.7 3.95 60 75 56 71 4.5 -72 8 02/27/2026 05:00 PM 50334
67489 13.7 3.91 36 76 57 71 4.5 -72 7 02/27/2026 04:45 PM 50333
67488 13.8 3.90 44 77 58 72 4.5 -72 6 02/27/2026 04:30 PM 50332
67487 13.8 3.76 0 82 55 74 5.1 -71 7 02/27/2026 04:15 PM 50331
67486 13.8 3.77 0 86 51 75 5.1 -72 8 02/27/2026 04:00 PM 50330
67485 13.8 3.76 0 87 49 76 5.1 -73 7 02/27/2026 03:45 PM 50329
67484 13.8 4.07 0 86 49 75 5.1 -73 7 02/27/2026 03:30 PM 50328
67483 13.9 4.06 0 86 49 75 5.1 -72 8 02/27/2026 03:15 PM 50327
67482 13.9 3.76 0 85 50 74 5.1 -73 7 02/27/2026 03:00 PM 50326
67481 13.9 4.01 0 85 49 74 5.1 -74 8 02/27/2026 02:45 PM 50325
67480 13.9 3.83 0 84 49 73 5.1 -72 8 02/27/2026 02:30 PM 50324
67479 13.9 3.76 0 85 48 74 5.1 -73 8 02/27/2026 02:15 PM 50323
67478 13.9 3.76 0 84 48 74 5.1 -73 8 02/27/2026 02:00 PM 50322
67477 13.9 3.76 0 84 48 73 5.1 -73 7 02/27/2026 01:45 PM 50321
67476 13.9 3.76 0 84 47 73 5.1 -73 7 02/27/2026 01:30 PM 50320